Time;durP1;ratioP1;P1;durP2;ratioP2;P2;SDS_P1;SDS_P2;PMS_P1;PMS_P2;Temp;Humidity;BMP_temperature;BMP_pressure;BME280_temperature;BME280_humidity;BME280_pressure;Samples;Min_cycle;Max_cycle;Signal;HPM_P1;HPM_P2
2021/03/25 00:01:59;;;;;;;45.80;19.20;;;7.20;99.90;;;;;;6165792;23;20163;-87
2021/03/25 00:04:26;;;;;;;38.23;17.10;;;7.20;99.90;;;;;;6166510;23;20160;-87
2021/03/25 00:06:56;;;;;;;42.60;17.40;;;7.20;99.90;;;;;;6194448;23;20175;-87
2021/03/25 00:09:26;;;;;;;38.13;16.63;;;7.20;99.90;;;;;;6193116;23;20232;-86
2021/03/25 00:11:52;;;;;;;39.03;16.97;;;7.20;99.90;;;;;;6193041;23;20191;-86
2021/03/25 00:14:18;;;;;;;40.60;17.67;;;7.20;99.90;;;;;;6166982;23;20180;-86
2021/03/25 00:16:44;;;;;;;39.67;17.40;;;7.20;99.90;;;;;;6166565;23;20198;-86
2021/03/25 00:19:10;;;;;;;37.13;16.90;;;7.20;99.90;;;;;;6167052;23;20220;-86
2021/03/25 00:21:36;;;;;;;41.87;16.83;;;7.20;99.90;;;;;;6190822;23;20159;-87
2021/03/25 00:24:02;;;;;;;38.90;16.73;;;7.20;99.90;;;;;;6193612;23;20179;-88
2021/03/25 00:26:28;;;;;;;38.40;15.97;;;7.20;99.90;;;;;;6167112;23;20168;-88
2021/03/25 00:28:55;;;;;;;40.43;16.50;;;7.20;99.90;;;;;;6193308;23;20172;-87
2021/03/25 00:31:21;;;;;;;40.50;15.90;;;7.20;99.90;;;;;;6166974;23;20160;-87
2021/03/25 00:33:46;;;;;;;36.30;15.43;;;7.20;99.90;;;;;;6167122;23;20426;-87
2021/03/25 00:36:12;;;;;;;36.13;15.77;;;7.20;99.90;;;;;;6166902;23;20152;-86
2021/03/25 00:38:37;;;;;;;32.87;14.40;;;7.20;99.90;;;;;;6192168;23;20220;-87
2021/03/25 00:41:03;;;;;;;36.73;14.90;;;7.20;99.90;;;;;;6193151;23;20512;-85
2021/03/25 00:43:29;;;;;;;36.00;14.13;;;7.20;99.90;;;;;;6191165;23;20162;-87
2021/03/25 00:45:54;;;;;;;28.07;12.77;;;7.20;99.90;;;;;;6192051;23;20227;-86
2021/03/25 00:48:22;;;;;;;30.70;13.17;;;7.20;99.90;;;;;;6164206;23;20624;-86
2021/03/25 00:50:52;;;;;;;30.83;13.13;;;7.20;99.90;;;;;;6190196;23;20156;-87
2021/03/25 00:53:24;;;;;;;30.63;13.13;;;7.20;99.90;;;;;;6191071;23;20164;-86
2021/03/25 00:55:49;;;;;;;31.43;13.37;;;7.20;99.90;;;;;;6164164;23;20156;-86
2021/03/25 00:58:15;;;;;;;30.10;13.17;;;7.20;99.90;;;;;;6190462;23;20222;-86
2021/03/25 01:00:43;;;;;;;34.80;13.70;;;7.30;99.90;;;;;;6190888;23;20191;-86
2021/03/25 01:03:10;;;;;;;32.60;13.97;;;7.30;99.90;;;;;;6190978;23;20163;-86
2021/03/25 01:05:36;;;;;;;32.30;13.77;;;7.30;99.90;;;;;;6163938;23;20163;-86
2021/03/25 01:08:03;;;;;;;28.53;12.87;;;7.20;99.90;;;;;;6190469;23;20168;-86
2021/03/25 01:10:30;;;;;;;30.67;12.87;;;7.20;99.90;;;;;;6164132;23;20164;-86
2021/03/25 01:12:58;;;;;;;33.00;13.90;;;7.30;99.90;;;;;;6164947;23;20323;-86
2021/03/25 01:15:25;;;;;;;31.87;13.83;;;7.20;99.90;;;;;;6188760;23;20203;-87
2021/03/25 01:17:53;;;;;;;30.40;12.97;;;7.20;99.90;;;;;;6189517;23;20172;-86
2021/03/25 01:20:26;;;;;;;32.70;13.40;;;7.30;99.90;;;;;;6164300;23;20157;-86
2021/03/25 01:22:52;;;;;;;31.07;13.13;;;7.20;99.90;;;;;;6164504;23;20153;-86
2021/03/25 01:25:19;;;;;;;33.27;12.77;;;7.20;99.90;;;;;;6165053;23;20160;-86
2021/03/25 01:27:46;;;;;;;27.70;12.13;;;7.10;99.90;;;;;;6189135;23;20187;-87
2021/03/25 01:30:12;;;;;;;32.83;12.87;;;7.10;99.90;;;;;;6164378;23;20156;-86
2021/03/25 01:32:39;;;;;;;28.40;12.03;;;7.00;99.90;;;;;;6191721;23;20153;-87
2021/03/25 01:35:08;;;;;;;35.53;14.53;;;7.10;99.90;;;;;;6165418;23;20156;-87
2021/03/25 01:37:33;;;;;;;28.97;12.63;;;7.00;99.90;;;;;;6165716;23;20172;-87
2021/03/25 01:39:59;;;;;;;26.67;11.73;;;7.10;99.90;;;;;;6191807;23;20175;-87
2021/03/25 01:42:28;;;;;;;28.97;12.33;;;7.00;99.90;;;;;;6189030;23;20187;-86
2021/03/25 01:44:54;;;;;;;34.77;14.00;;;7.00;99.90;;;;;;6164144;23;20152;-85
2021/03/25 01:47:20;;;;;;;33.60;14.00;;;7.10;99.90;;;;;;6163902;23;20156;-85
2021/03/25 01:49:46;;;;;;;34.40;14.23;;;7.10;99.90;;;;;;6163773;23;20157;-87
2021/03/25 01:52:14;;;;;;;30.53;13.57;;;7.20;99.90;;;;;;6191553;23;20623;-86
2021/03/25 01:55:06;;;;;;;33.30;13.17;;;7.20;99.90;;;;;;6192002;23;20203;-86
2021/03/25 01:57:52;;;;;;;38.33;14.17;;;7.10;99.90;;;;;;6164444;23;20191;-86
2021/03/25 02:00:26;;;;;;;35.20;14.53;;;7.10;99.90;;;;;;6164137;23;20485;-86
2021/03/25 02:03:32;;;;;;;33.83;12.93;;;7.10;99.90;;;;;;6164493;23;20187;-86
2021/03/25 02:06:25;;;;;;;31.60;13.63;;;7.10;99.90;;;;;;6164581;23;20152;-86
2021/03/25 02:09:14;;;;;;;32.70;13.80;;;7.10;99.90;;;;;;6163866;23;20254;-86
2021/03/25 02:12:01;;;;;;;29.83;12.30;;;7.10;99.90;;;;;;6163439;23;20159;-86
2021/03/25 02:14:42;;;;;;;33.07;13.63;;;7.00;99.90;;;;;;6190713;23;20187;-86
2021/03/25 02:17:29;;;;;;;32.63;12.43;;;7.00;99.90;;;;;;6163950;23;20163;-86
2021/03/25 02:20:24;;;;;;;28.60;12.37;;;6.90;99.90;;;;;;6164114;23;20156;-87
2021/03/25 02:23:32;;;;;;;31.90;12.53;;;6.90;99.90;;;;;;6191639;23;20133;-87
2021/03/25 02:26:07;;;;;;;30.10;11.27;;;6.90;99.90;;;;;;6161500;23;20631;-87
2021/03/25 02:29:10;;;;;;;24.03;10.70;;;6.90;99.90;;;;;;6165856;23;20183;-87
2021/03/25 02:31:40;;;;;;;27.33;10.60;;;6.90;99.90;;;;;;6191136;23;20163;-87
2021/03/25 02:34:11;;;;;;;30.80;11.90;;;6.80;99.90;;;;;;6191371;23;20240;-87
2021/03/25 02:37:03;;;;;;;29.53;11.47;;;6.70;99.90;;;;;;6191692;23;20188;-87
2021/03/25 02:39:41;;;;;;;23.67;9.87;;;6.70;99.90;;;;;;6166112;23;20279;-87
2021/03/25 02:42:10;;;;;;;25.07;11.40;;;6.80;99.90;;;;;;6191040;23;20163;-87
2021/03/25 02:44:52;;;;;;;33.93;12.97;;;6.80;99.90;;;;;;6191069;23;20179;-87
2021/03/25 02:47:19;;;;;;;29.07;12.20;;;6.80;99.90;;;;;;6164328;23;20181;-87
2021/03/25 02:49:53;;;;;;;30.27;11.77;;;6.70;99.90;;;;;;6163196;23;20156;-87
2021/03/25 02:52:30;;;;;;;28.40;11.03;;;6.70;99.90;;;;;;6164730;23;20164;-87
2021/03/25 02:54:57;;;;;;;27.20;11.20;;;6.60;99.90;;;;;;6191976;23;20219;-87
2021/03/25 02:58:01;;;;;;;28.80;11.37;;;6.70;99.90;;;;;;6165583;23;20672;-88
2021/03/25 03:00:41;;;;;;;32.93;12.20;;;6.70;99.90;;;;;;6159706;23;20234;-87
2021/03/25 03:03:12;;;;;;;28.57;11.50;;;6.60;99.90;;;;;;6167318;23;20217;-87
2021/03/25 03:05:41;;;;;;;30.57;11.20;;;6.50;99.90;;;;;;6166546;23;20157;-87
2021/03/25 03:08:18;;;;;;;28.63;11.00;;;6.50;99.90;;;;;;6194374;23;20174;-87
2021/03/25 03:10:52;;;;;;;27.57;10.40;;;6.40;99.90;;;;;;6167788;23;20149;-87
2021/03/25 03:13:19;;;;;;;36.10;11.73;;;6.30;99.90;;;;;;6167682;23;20500;-87
2021/03/25 03:16:02;;;;;;;28.17;10.83;;;6.20;99.90;;;;;;6193141;23;20544;-87
2021/03/25 03:18:43;;;;;;;30.90;11.53;;;6.30;99.90;;;;;;6165918;23;20201;-87
2021/03/25 03:21:35;;;;;;;25.40;10.87;;;6.30;99.90;;;;;;6167556;23;20148;-87
2021/03/25 03:24:01;;;;;;;28.33;10.17;;;6.30;99.90;;;;;;6194400;23;20160;-87
2021/03/25 03:26:32;;;;;;;24.23;9.60;;;6.30;99.90;;;;;;6193869;23;20488;-86
2021/03/25 03:29:06;;;;;;;29.37;11.07;;;6.30;99.90;;;;;;6166983;23;20176;-86
2021/03/25 03:31:43;;;;;;;26.87;10.07;;;6.20;99.90;;;;;;6166829;23;20149;-85
2021/03/25 03:34:18;;;;;;;26.27;11.07;;;6.20;99.90;;;;;;6165297;23;20694;-86
2021/03/25 03:36:46;;;;;;;30.63;11.30;;;6.10;99.90;;;;;;6164610;23;20157;-86
2021/03/25 03:39:19;;;;;;;26.63;9.63;;;6.10;99.90;;;;;;6164458;23;20176;-86
2021/03/25 04:50:16;;;;;;;27.23;10.83;;;5.50;99.90;;;;;;6190747;23;20622;-86
2021/03/25 04:52:41;;;;;;;22.60;9.60;;;5.50;99.90;;;;;;6166583;23;20236;-87
2021/03/25 04:55:22;;;;;;;23.97;8.87;;;5.40;99.90;;;;;;6190407;23;20170;-87
2021/03/25 04:57:57;;;;;;;21.83;8.87;;;5.50;99.90;;;;;;6164643;23;20694;-87
2021/03/25 05:00:31;;;;;;;23.57;9.70;;;5.50;99.90;;;;;;6164623;23;20159;-86
2021/03/25 05:03:00;;;;;;;23.30;8.87;;;5.50;99.90;;;;;;6165260;23;20163;-86
2021/03/25 05:05:29;;;;;;;24.43;9.40;;;5.40;99.90;;;;;;6164983;23;20180;-86
2021/03/25 05:08:02;;;;;;;26.07;9.80;;;5.60;99.90;;;;;;6192116;23;20231;-86
2021/03/25 05:10:33;;;;;;;25.97;10.07;;;5.50;99.90;;;;;;6164989;23;20615;-86
2021/03/25 05:12:59;;;;;;;27.13;9.83;;;5.50;99.90;;;;;;6164485;23;20193;-86
2021/03/25 05:15:26;;;;;;;31.93;10.27;;;5.50;99.90;;;;;;6164702;23;20258;-85
2021/03/25 05:18:01;;;;;;;23.33;9.57;;;5.50;99.90;;;;;;6190437;23;20152;-86
2021/03/25 05:20:41;;;;;;;26.93;10.10;;;5.40;99.90;;;;;;6165079;23;20167;-86
2021/03/25 05:23:27;;;;;;;30.97;11.03;;;5.40;99.90;;;;;;6190452;23;20148;-86
2021/03/25 05:26:05;;;;;;;30.07;10.40;;;5.40;99.90;;;;;;6189722;23;20171;-86
2021/03/25 05:28:40;;;;;;;26.77;9.50;;;5.40;99.90;;;;;;6188590;23;20198;-85
2021/03/25 05:31:09;;;;;;;31.63;11.07;;;5.40;99.90;;;;;;6164099;23;20161;-85
2021/03/25 05:33:36;;;;;;;28.40;10.53;;;5.40;99.90;;;;;;6189859;23;20184;-85
2021/03/25 05:36:05;;;;;;;27.67;10.27;;;5.30;99.90;;;;;;6189322;23;20207;-85
2021/03/25 05:38:31;;;;;;;28.30;11.00;;;5.40;99.90;;;;;;6190921;23;20147;-86
2021/03/25 05:41:01;;;;;;;26.33;11.30;;;5.40;99.90;;;;;;6163935;23;20210;-87
2021/03/25 05:43:48;;;;;;;29.00;10.80;;;5.40;99.90;;;;;;6165224;23;20546;-86
2021/03/25 05:46:28;;;;;;;28.00;10.63;;;5.30;99.90;;;;;;6165764;23;20669;-86
2021/03/25 05:49:08;;;;;;;22.40;9.50;;;5.10;99.90;;;;;;6190703;23;20163;-87
2021/03/25 05:51:56;;;;;;;29.90;10.67;;;5.10;99.90;;;;;;6192042;23;20191;-88
2021/03/25 05:54:38;;;;;;;22.83;9.47;;;5.20;99.90;;;;;;6165368;23;20170;-87
2021/03/25 05:57:16;;;;;;;20.20;8.23;;;5.20;99.90;;;;;;6165579;23;20176;-86
2021/03/25 05:59:54;;;;;;;24.97;9.30;;;5.30;99.90;;;;;;6165159;23;20163;-87
2021/03/25 06:02:26;;;;;;;24.27;9.87;;;5.30;99.90;;;;;;6190574;23;20221;-87
2021/03/25 06:04:52;;;;;;;25.00;9.07;;;5.40;99.90;;;;;;6165267;23;20148;-87
2021/03/25 06:07:56;;;;;;;22.87;9.27;;;5.30;99.90;;;;;;6165305;23;20170;-87
2021/03/25 06:10:38;;;;;;;30.27;10.33;;;5.20;99.90;;;;;;6185015;23;20246;-87
2021/03/25 06:13:28;;;;;;;34.27;11.97;;;5.30;99.90;;;;;;6165913;23;20623;-87
2021/03/25 06:16:19;;;;;;;29.37;10.37;;;5.20;99.90;;;;;;6191786;23;20194;-87
2021/03/25 06:19:22;;;;;;;21.03;8.47;;;5.30;99.90;;;;;;6193338;23;20513;-87
2021/03/25 06:22:31;;;;;;;23.70;9.60;;;5.30;99.90;;;;;;6163405;23;20199;-87
2021/03/25 06:25:06;;;;;;;21.33;8.87;;;5.40;99.90;;;;;;6190281;23;20133;-87
2021/03/25 06:27:38;;;;;;;22.50;9.53;;;5.40;99.90;;;;;;6163856;23;20155;-87
2021/03/25 06:30:14;;;;;;;21.20;8.73;;;5.40;99.90;;;;;;6163615;23;20237;-87
2021/03/25 06:32:57;;;;;;;24.67;9.30;;;5.40;99.90;;;;;;6191429;23;20143;-87
2021/03/25 06:35:41;;;;;;;22.10;9.47;;;5.40;99.90;;;;;;6163721;23;20178;-87
2021/03/25 06:38:28;;;;;;;29.20;10.17;;;5.50;99.90;;;;;;6191911;23;20135;-87
2021/03/25 06:40:58;;;;;;;30.93;11.10;;;5.50;99.90;;;;;;6191466;23;20144;-87
2021/03/25 06:43:34;;;;;;;26.90;10.67;;;5.60;99.90;;;;;;6166051;23;20208;-87
2021/03/25 06:46:23;;;;;;;33.20;12.07;;;5.60;99.90;;;;;;6191783;23;20628;-87
2021/03/25 06:48:53;;;;;;;28.60;13.57;;;5.40;99.90;;;;;;6189023;23;20402;-85
2021/03/25 06:51:25;;;;;;;24.97;10.43;;;5.30;99.90;;;;;;6165092;23;20180;-87
2021/03/25 06:54:10;;;;;;;27.70;11.93;;;5.50;99.90;;;;;;6189651;23;20175;-87
2021/03/25 06:56:43;;;;;;;24.27;10.73;;;5.50;99.90;;;;;;6163304;23;20237;-87
2021/03/25 06:59:35;;;;;;;25.23;11.40;;;5.60;99.90;;;;;;6190045;23;20134;-87
2021/03/25 07:02:13;;;;;;;24.60;11.60;;;5.70;99.90;;;;;;6168129;23;20143;-87
2021/03/25 07:04:48;;;;;;;30.50;11.20;;;5.70;99.90;;;;;;6195401;23;20140;-87
2021/03/25 07:07:23;;;;;;;24.67;11.10;;;5.90;99.90;;;;;;6192081;23;20616;-87
2021/03/25 07:09:50;;;;;;;28.77;11.67;;;5.90;99.90;;;;;;6168779;23;20209;-87
2021/03/25 07:12:22;;;;;;;24.80;10.20;;;5.80;99.90;;;;;;6195258;23;20163;-87
2021/03/25 07:14:50;;;;;;;31.00;12.67;;;5.90;99.90;;;;;;6192934;23;20519;-87
2021/03/25 07:17:22;;;;;;;27.97;11.03;;;5.90;99.90;;;;;;6195563;23;20160;-87
2021/03/25 07:19:51;;;;;;;30.73;11.93;;;6.10;99.90;;;;;;6192826;23;20519;-87
2021/03/25 07:22:25;;;;;;;27.03;10.87;;;6.30;99.90;;;;;;6167966;23;20500;-87
2021/03/25 07:25:13;;;;;;;29.30;12.30;;;6.40;99.90;;;;;;6194056;23;20144;-87
2021/03/25 07:27:39;;;;;;;24.87;11.17;;;6.40;99.90;;;;;;6193177;23;20148;-87
2021/03/25 07:30:08;;;;;;;28.20;11.83;;;6.30;99.90;;;;;;6193698;23;20168;-88
2021/03/25 07:32:54;;;;;;;24.97;11.00;;;6.40;99.90;;;;;;6194857;23;20251;-88
2021/03/25 07:35:37;;;;;;;26.47;10.50;;;6.40;99.90;;;;;;6194133;23;20219;-87
2021/03/25 07:38:31;;;;;;;24.40;10.87;;;6.30;99.90;;;;;;6193836;23;20191;-87
2021/03/25 07:41:18;;;;;;;25.13;10.90;;;6.30;99.90;;;;;;6193878;23;20156;-88
2021/03/25 07:44:05;;;;;;;25.53;10.93;;;6.30;99.90;;;;;;6195863;23;20167;-87
2021/03/25 07:46:50;;;;;;;27.73;11.20;;;6.30;99.90;;;;;;6168324;23;21016;-87
2021/03/25 07:49:20;;;;;;;30.23;11.80;;;6.20;99.90;;;;;;6191588;23;20269;-86
2021/03/25 07:51:50;;;;;;;30.67;12.07;;;6.20;99.90;;;;;;6192726;23;20156;-87
2021/03/25 07:54:17;;;;;;;28.27;12.30;;;6.30;99.90;;;;;;6193382;23;20206;-87
2021/03/25 07:57:04;;;;;;;27.23;11.73;;;6.20;99.90;;;;;;6194337;23;20703;-87
2021/03/25 07:59:41;;;;;;;30.33;11.37;;;6.20;99.90;;;;;;6194741;23;20154;-87
2021/03/25 08:02:19;;;;;;;30.27;12.40;;;6.20;99.90;;;;;;6168787;23;20488;-87
2021/03/25 08:04:44;;;;;;;27.40;11.07;;;6.30;99.90;;;;;;6169253;23;20155;-87
2021/03/25 08:07:10;;;;;;;25.80;10.53;;;6.40;99.90;;;;;;6194106;23;20167;-88
2021/03/25 08:09:47;;;;;;;30.30;12.10;;;6.60;99.90;;;;;;6169757;23;20238;-87
2021/03/25 08:12:29;;;;;;;26.97;10.80;;;6.70;99.90;;;;;;6194111;23;20147;-87
2021/03/25 08:15:17;;;;;;;26.47;11.17;;;6.80;99.90;;;;;;6192228;23;20195;-88
2021/03/25 08:18:05;;;;;;;27.40;11.00;;;7.00;99.90;;;;;;6168662;23;20144;-87
2021/03/25 08:20:51;;;;;;;26.10;10.07;;;7.00;99.90;;;;;;6194671;23;20220;-88
2021/03/25 08:23:17;;;;;;;32.73;12.30;;;6.80;99.90;;;;;;6166597;23;20659;-87
2021/03/25 08:25:44;;;;;;;29.37;11.60;;;6.70;99.90;;;;;;6167761;23;20176;-87
2021/03/25 08:28:15;;;;;;;27.57;10.70;;;6.60;99.90;;;;;;6191968;23;20152;-86
2021/03/25 08:31:18;;;;;;;30.30;11.57;;;6.50;99.90;;;;;;6190595;23;20612;-87
2021/03/25 08:34:04;;;;;;;31.20;12.23;;;6.60;99.90;;;;;;6166048;23;20287;-87
2021/03/25 08:36:59;;;;;;;36.77;11.87;;;6.80;99.90;;;;;;6165972;23;20175;-88
2021/03/25 08:39:53;;;;;;;31.53;11.97;;;7.10;99.90;;;;;;6167450;23;20141;-88
2021/03/25 08:42:18;;;;;;;26.03;11.03;;;7.30;99.90;;;;;;6192448;23;20151;-87
2021/03/25 08:45:07;;;;;;;37.23;13.20;;;7.50;99.90;;;;;;6165641;23;20191;-87
2021/03/25 08:47:55;;;;;;;33.47;12.57;;;7.60;99.90;;;;;;6167534;23;20176;-87
2021/03/25 08:50:48;;;;;;;31.70;11.43;;;7.50;99.90;;;;;;6189503;23;20157;-87
2021/03/25 08:53:18;;;;;;;26.60;11.47;;;7.50;99.90;;;;;;6190666;23;20187;-87
2021/03/25 08:55:44;;;;;;;32.83;12.00;;;7.60;99.90;;;;;;6189640;23;20710;-86
2021/03/25 08:58:20;;;;;;;28.93;11.20;;;7.80;99.90;;;;;;6188928;23;20152;-87
2021/03/25 09:00:49;;;;;;;27.97;12.27;;;8.00;99.90;;;;;;6192137;23;20132;-87
2021/03/25 09:03:29;;;;;;;29.03;11.37;;;8.10;99.90;;;;;;6164889;23;20236;-86
2021/03/25 09:06:35;;;;;;;32.77;12.17;;;8.10;99.90;;;;;;6189946;23;20187;-87
2021/03/25 09:09:16;;;;;;;29.50;12.10;;;8.20;99.90;;;;;;6099817;23;20158;-86
2021/03/25 09:11:42;;;;;;;29.80;13.00;;;8.30;99.90;;;;;;6160457;23;20151;-86
2021/03/25 09:14:17;;;;;;;25.47;10.90;;;8.40;99.90;;;;;;6190469;23;20184;-87
2021/03/25 09:16:43;;;;;;;28.93;11.57;;;8.50;99.90;;;;;;6189502;23;20203;-87
2021/03/25 09:19:23;;;;;;;27.33;11.37;;;8.70;99.90;;;;;;6190375;23;20184;-86
2021/03/25 09:21:54;;;;;;;27.70;12.00;;;8.80;99.90;;;;;;6191503;23;20583;-86
2021/03/25 09:24:21;;;;;;;29.10;11.37;;;8.80;99.90;;;;;;6191988;23;20599;-87
2021/03/25 09:26:53;;;;;;;25.43;10.73;;;8.90;99.90;;;;;;6191116;23;20277;-86
2021/03/25 09:29:27;;;;;;;24.47;11.10;;;9.00;99.90;;;;;;6163867;23;20144;-86
2021/03/25 09:31:56;;;;;;;26.33;10.27;;;9.20;99.90;;;;;;6190778;23;20148;-87
2021/03/25 09:34:24;;;;;;;26.00;11.13;;;9.20;99.90;;;;;;6164877;23;20187;-87
2021/03/25 09:37:12;;;;;;;28.40;11.57;;;9.10;99.90;;;;;;6163888;23;20172;-86
2021/03/25 09:39:38;;;;;;;28.13;11.77;;;9.40;99.90;;;;;;6190866;23;20195;-87
2021/03/25 09:42:15;;;;;;;27.90;11.73;;;9.50;99.90;;;;;;6190960;23;20156;-86
2021/03/25 09:44:42;;;;;;;27.53;12.00;;;9.70;99.90;;;;;;6164734;23;20171;-86
2021/03/25 09:47:18;;;;;;;26.67;12.00;;;9.80;99.90;;;;;;6190767;23;20183;-86
2021/03/25 09:50:03;;;;;;;27.87;11.67;;;9.80;99.90;;;;;;6192481;23;20175;-86
2021/03/25 09:52:36;;;;;;;27.77;10.97;;;9.80;99.90;;;;;;6164599;23;20787;-87
2021/03/25 09:55:02;;;;;;;24.13;11.07;;;9.90;99.90;;;;;;6192509;23;20169;-86
2021/03/25 09:57:30;;;;;;;26.60;11.03;;;9.90;99.90;;;;;;6190789;23;20496;-86
2021/03/25 10:00:01;;;;;;;28.33;12.20;;;10.00;99.90;;;;;;6166047;23;20175;-86
2021/03/25 10:02:43;;;;;;;27.33;10.50;;;10.10;99.90;;;;;;6165527;23;20155;-86
2021/03/25 10:05:27;;;;;;;24.27;11.03;;;10.10;99.90;;;;;;6165402;23;20548;-86
2021/03/25 10:08:20;;;;;;;26.53;12.43;;;10.40;99.90;;;;;;6165408;23;20141;-86
2021/03/25 10:10:54;;;;;;;28.33;11.97;;;10.40;99.90;;;;;;6164541;23;20152;-87
2021/03/25 10:13:29;;;;;;;31.27;13.00;;;10.40;99.90;;;;;;6188831;23;20183;-87
2021/03/25 10:15:57;;;;;;;24.17;11.43;;;10.50;99.90;;;;;;6191085;23;20218;-88
2021/03/25 10:18:26;;;;;;;27.90;11.83;;;10.60;99.90;;;;;;6189625;23;20184;-87
2021/03/25 10:21:11;;;;;;;28.37;13.60;;;10.70;99.90;;;;;;6164162;23;20220;-87
2021/03/25 10:23:50;;;;;;;30.37;13.50;;;10.60;99.90;;;;;;6188209;23;20159;-87
2021/03/25 10:26:34;;;;;;;29.40;14.37;;;10.70;99.90;;;;;;6163029;23;20181;-87
2021/03/25 10:29:09;;;;;;;27.27;12.37;;;10.90;99.90;;;;;;6188292;23;20149;-87
2021/03/25 10:31:55;;;;;;;28.57;13.17;;;10.90;99.90;;;;;;6163889;23;20234;-86
2021/03/25 10:34:23;;;;;;;26.57;11.33;;;11.00;99.90;;;;;;6186915;23;20294;-86
2021/03/25 10:36:57;;;;;;;23.37;11.53;;;11.00;99.90;;;;;;6186933;23;20679;-87
2021/03/25 10:39:32;;;;;;;21.50;11.27;;;10.90;99.90;;;;;;6162596;23;20525;-87
2021/03/25 10:42:32;;;;;;;24.13;10.87;;;11.00;99.90;;;;;;6189599;23;20141;-87
2021/03/25 10:45:18;;;;;;;26.53;11.60;;;11.20;99.90;;;;;;6188839;23;20158;-87
2021/03/25 10:47:52;;;;;;;23.73;11.20;;;11.20;99.90;;;;;;6188884;23;20593;-88
2021/03/25 10:50:32;;;;;;;28.93;12.43;;;11.20;99.90;;;;;;6188416;23;20225;-88
2021/03/25 10:53:05;;;;;;;23.70;11.20;;;11.30;99.90;;;;;;6183015;23;20165;-86
2021/03/25 10:55:40;;;;;;;23.47;10.73;;;11.40;99.90;;;;;;6187105;23;20233;-88
2021/03/25 10:58:07;;;;;;;23.80;11.50;;;11.40;99.90;;;;;;6190198;23;20177;-87
2021/03/25 11:00:38;;;;;;;23.23;10.17;;;11.40;99.90;;;;;;6189382;23;20216;-87
2021/03/25 14:15:40;;;;;;;27.57;14.17;;;14.50;99.90;;;;;;6182269;23;20167;-90
2021/03/25 15:26:46;;;;;;;27.13;14.73;;;13.90;99.90;;;;;;6247117;23;20182;-88
2021/03/25 15:29:34;;;;;;;29.93;16.70;;;13.90;99.90;;;;;;6221740;23;20142;-87
2021/03/25 15:35:11;;;;;;;32.77;16.63;;;13.80;99.90;;;;;;6191989;23;20162;-88
2021/03/25 15:37:38;;;;;;;26.73;15.90;;;13.90;99.90;;;;;;6190799;23;20123;-88
2021/03/25 15:50:31;;;;;;;25.23;13.97;;;13.90;99.90;;;;;;6186607;23;20200;-86
2021/03/25 21:24:01;;;;;;;44.50;23.27;;;9.60;99.90;;;;;;6188718;23;20242;-85
2021/03/25 21:26:27;;;;;;;38.77;21.20;;;9.50;99.90;;;;;;6162397;23;20545;-85
2021/03/25 21:28:53;;;;;;;42.33;22.90;;;9.50;99.90;;;;;;6161962;23;20525;-85
2021/03/25 21:31:19;;;;;;;41.07;22.23;;;9.50;99.90;;;;;;6188484;23;20167;-88
2021/03/25 21:33:49;;;;;;;43.17;22.87;;;9.50;99.90;;;;;;6188296;23;20258;-85
2021/03/25 21:43:54;;;;;;;37.77;22.57;;;9.50;99.90;;;;;;6159164;23;20184;-86
2021/03/25 21:46:21;;;;;;;44.33;22.77;;;9.40;99.90;;;;;;6158239;23;20229;-86
2021/03/25 21:48:48;;;;;;;37.47;19.63;;;9.40;99.90;;;;;;6157526;23;20157;-85
2021/03/25 21:51:16;;;;;;;35.83;19.37;;;9.40;99.90;;;;;;6158898;23;20165;-86
2021/03/25 21:53:56;;;;;;;40.60;20.80;;;9.40;99.90;;;;;;6160266;23;20181;-86
2021/03/25 21:56:26;;;;;;;40.27;20.87;;;9.30;99.90;;;;;;6157875;23;20148;-86
2021/03/25 21:58:52;;;;;;;43.57;22.10;;;9.30;99.90;;;;;;6159304;23;20154;-86
2021/03/25 22:01:18;;;;;;;48.13;22.40;;;9.30;99.90;;;;;;6159453;23;20545;-85
2021/03/25 22:03:44;;;;;;;40.63;19.73;;;9.20;99.90;;;;;;6182854;23;20651;-85
2021/03/25 22:06:10;;;;;;;41.03;22.13;;;9.20;99.90;;;;;;6157664;23;20157;-85
2021/03/25 22:08:36;;;;;;;43.77;22.40;;;9.20;99.90;;;;;;6158223;23;20156;-86
2021/03/25 22:11:03;;;;;;;47.67;23.63;;;9.20;99.90;;;;;;6158341;23;20180;-86
2021/03/25 22:13:32;;;;;;;45.80;24.40;;;9.20;99.90;;;;;;6157369;23;20176;-87
2021/03/25 22:15:58;;;;;;;43.93;22.60;;;9.20;99.90;;;;;;6157300;23;20165;-87
2021/03/25 22:18:24;;;;;;;42.23;20.77;;;9.20;99.90;;;;;;6157820;23;20206;-86
2021/03/25 22:20:50;;;;;;;42.10;22.33;;;9.20;99.90;;;;;;6159226;23;20169;-87
2021/03/25 22:23:17;;;;;;;48.60;24.57;;;9.20;99.90;;;;;;6158155;23;20157;-86
2021/03/25 22:25:43;;;;;;;46.43;25.97;;;9.20;99.90;;;;;;6160421;23;20172;-87
2021/03/25 22:28:09;;;;;;;49.00;26.50;;;9.10;99.90;;;;;;6158241;23;20161;-87
2021/03/25 22:30:36;;;;;;;50.93;26.57;;;9.10;99.90;;;;;;6157325;23;20173;-86
2021/03/25 22:33:04;;;;;;;57.80;28.73;;;9.10;99.90;;;;;;6158546;23;20656;-87
2021/03/25 22:35:29;;;;;;;44.40;23.47;;;9.10;99.90;;;;;;6159961;23;20157;-86
2021/03/25 22:38:00;;;;;;;54.73;28.37;;;9.00;99.90;;;;;;6157919;23;20264;-86
2021/03/25 22:40:27;;;;;;;52.60;25.80;;;9.00;99.90;;;;;;6158030;23;20511;-86
2021/03/25 22:42:53;;;;;;;52.63;25.73;;;9.00;99.90;;;;;;6158328;23;20219;-86
2021/03/25 22:45:29;;;;;;;49.00;26.33;;;9.00;99.90;;;;;;6156950;23;20156;-87
2021/03/25 22:47:55;;;;;;;49.30;24.97;;;9.00;99.90;;;;;;6158459;23;20582;-86
2021/03/25 22:50:21;;;;;;;49.03;25.87;;;8.90;99.90;;;;;;6158404;23;20192;-86
2021/03/25 22:52:47;;;;;;;49.90;26.50;;;8.90;99.90;;;;;;6159843;23;20152;-86
2021/03/25 22:55:13;;;;;;;57.93;26.47;;;8.90;99.90;;;;;;6157333;23;20181;-86
2021/03/25 22:57:39;;;;;;;51.53;24.87;;;8.80;99.90;;;;;;6159672;23;20156;-86
2021/03/25 23:00:19;;;;;;;46.57;24.77;;;8.80;99.90;;;;;;6157298;23;20633;-86
2021/03/25 23:02:44;;;;;;;50.03;24.70;;;8.80;99.90;;;;;;6160075;23;20156;-86
2021/03/25 23:05:10;;;;;;;50.07;25.20;;;8.60;99.90;;;;;;6183567;23;20588;-86
2021/03/25 23:07:38;;;;;;;42.23;21.77;;;8.60;99.90;;;;;;6158441;23;20605;-86
2021/03/25 23:10:33;;;;;;;48.60;23.77;;;8.50;99.90;;;;;;6158181;23;20177;-85
2021/03/25 23:12:59;;;;;;;46.17;23.73;;;8.40;99.90;;;;;;6152789;23;20167;-86
2021/03/25 23:15:27;;;;;;;42.57;20.90;;;8.30;99.90;;;;;;6158567;23;20251;-86
2021/03/25 23:17:54;;;;;;;48.70;23.80;;;8.30;99.90;;;;;;6159397;23;20151;-86
2021/03/25 23:20:20;;;;;;;44.87;23.80;;;8.30;99.90;;;;;;6159022;23;20176;-86
2021/03/25 23:22:51;;;;;;;45.13;22.17;;;8.20;99.90;;;;;;6159420;23;20156;-86
2021/03/25 23:25:23;;;;;;;41.50;21.87;;;8.20;99.90;;;;;;6158917;23;20333;-86
2021/03/25 23:27:54;;;;;;;42.03;21.13;;;8.20;99.90;;;;;;6161645;23;20180;-86
2021/03/25 23:30:24;;;;;;;43.43;20.87;;;8.20;99.90;;;;;;6159274;23;20180;-86
2021/03/25 23:32:51;;;;;;;40.73;19.40;;;8.10;99.90;;;;;;6159391;23;20149;-86
2021/03/25 23:35:18;;;;;;;39.93;20.47;;;8.10;99.90;;;;;;6159251;23;20189;-86
2021/03/25 23:37:44;;;;;;;41.87;21.67;;;8.20;99.90;;;;;;6158898;23;20168;-86
2021/03/25 23:40:20;;;;;;;45.27;21.57;;;8.10;99.90;;;;;;6160830;23;20223;-86
2021/03/25 23:42:46;;;;;;;41.43;20.67;;;8.00;99.90;;;;;;6160542;23;20160;-86
2021/03/25 23:45:18;;;;;;;37.67;19.13;;;8.00;99.90;;;;;;6161341;23;20203;-86
2021/03/25 23:47:45;;;;;;;36.07;18.53;;;7.90;99.90;;;;;;6160836;23;20138;-85
2021/03/25 23:50:23;;;;;;;39.93;18.47;;;7.90;99.90;;;;;;6158693;23;20192;-85
2021/03/25 23:52:49;;;;;;;41.63;19.97;;;7.90;99.90;;;;;;6161256;23;20152;-85
2021/03/25 23:55:17;;;;;;;41.50;19.20;;;7.90;99.90;;;;;;6159338;23;20265;-85
2021/03/25 23:57:44;;;;;;;33.10;17.43;;;7.80;99.90;;;;;;6158848;23;20153;-85
